createdAt,value
2018-04-15T00:01:01.126Z,78.93
2018-04-15T00:02:01.035Z,78.93
2018-04-15T00:03:57.072Z,78.89
2018-04-15T00:04:56.961Z,79.27
2018-04-15T00:06:50.956Z,79.46
2018-04-15T00:07:50.458Z,80.13
2018-04-15T00:09:46.545Z,80.51
2018-04-15T00:10:46.369Z,80.22
2018-04-15T00:12:42.487Z,80.90
2018-04-15T00:13:42.292Z,80.51
2018-04-15T00:15:38.600Z,81.18
2018-04-15T00:16:38.291Z,81.37
2018-04-15T00:18:35.266Z,80.61
2018-04-15T00:19:34.568Z,80.41
2018-04-15T00:21:30.653Z,79.85
2018-04-15T00:22:30.473Z,80.27
2018-04-15T00:24:26.625Z,79.98
2018-04-15T00:25:26.475Z,79.50
2018-04-15T00:27:22.487Z,79.46
2018-04-15T00:28:22.304Z,79.65
2018-04-15T00:30:18.903Z,80.22
2018-04-15T00:31:18.299Z,80.13
2018-04-15T00:33:14.494Z,79.75
2018-04-15T00:34:14.319Z,80.41
2018-04-15T00:36:10.514Z,80.61
2018-04-15T00:37:10.310Z,81.18
2018-04-15T00:39:06.533Z,80.99
2018-04-15T00:40:06.424Z,80.99
2018-04-15T00:42:02.499Z,80.51
2018-04-15T00:43:02.320Z,80.32
2018-04-15T00:44:58.521Z,80.13
2018-04-15T00:45:58.319Z,79.98
2018-04-15T00:47:54.830Z,79.60
2018-04-15T00:48:54.318Z,79.41
2018-04-15T00:50:51.837Z,79.22
2018-04-15T00:51:51.666Z,79.02
2018-04-15T00:53:48.186Z,78.93
2018-04-15T00:54:47.602Z,79.60
2018-04-15T00:56:44.099Z,79.41
2018-04-15T00:57:43.493Z,79.50
2018-04-15T00:59:39.547Z,78.83
2018-04-15T01:00:39.454Z,78.93
2018-04-15T01:02:35.948Z,78.74
2018-04-15T01:03:35.451Z,78.83
2018-04-15T01:05:31.616Z,79.17
2018-04-15T01:06:31.480Z,79.17
2018-04-15T01:08:28.010Z,79.36
2018-04-15T01:09:27.446Z,79.85
2018-04-15T01:11:23.577Z,79.85
2018-04-15T01:12:23.467Z,79.46
2018-04-15T01:14:19.530Z,79.56
2018-04-15T01:15:19.437Z,79.27
2018-04-15T01:17:15.542Z,80.13
2018-04-15T01:18:15.456Z,80.13
2018-04-15T01:20:11.565Z,79.85
2018-04-15T01:21:11.476Z,80.13
2018-04-15T01:23:08.771Z,80.22
2018-04-15T01:24:08.656Z,79.90
2018-04-15T01:26:05.137Z,79.99
2018-04-15T01:27:04.579Z,80.09
2018-04-15T01:29:01.078Z,80.19
2018-04-15T01:30:00.535Z,80.57
2018-04-15T01:31:56.647Z,81.04
2018-04-15T01:32:56.510Z,80.95
2018-04-15T01:34:52.583Z,80.47
2018-04-15T01:35:52.360Z,80.38
2018-04-15T01:37:48.583Z,80.85
2018-04-15T01:38:48.366Z,80.28
2018-04-15T01:40:44.586Z,80.32
2018-04-15T01:41:44.374Z,80.47
2018-04-15T01:43:40.595Z,80.13
2018-04-15T01:44:40.371Z,79.99
2018-04-15T01:46:36.655Z,80.28
2018-04-15T01:47:36.341Z,80.47
2018-04-15T01:49:32.370Z,80.13
2018-04-15T01:50:32.258Z,80.32
2018-04-15T01:52:28.855Z,79.99
2018-04-15T01:53:28.166Z,80.09
2018-04-15T01:55:24.206Z,80.19
2018-04-15T01:56:24.088Z,80.09
2018-04-15T01:58:20.684Z,79.80
2018-04-15T01:59:19.992Z,80.28
2018-04-15T02:01:16.078Z,79.99
2018-04-15T02:02:15.898Z,80.47
2018-04-15T02:04:09.909Z,81.14
2018-04-15T02:05:09.359Z,81.24
2018-04-15T02:07:05.364Z,80.76
2018-04-15T02:08:05.249Z,80.57
2018-04-15T02:10:02.261Z,81.33
2018-04-15T02:11:01.675Z,80.95
2018-04-15T02:12:57.738Z,81.43
2018-04-15T02:13:57.591Z,81.90
2018-04-15T02:15:53.636Z,81.62
2018-04-15T02:16:53.522Z,81.43
2018-04-15T02:18:50.132Z,81.62
2018-04-15T02:19:49.547Z,81.43
2018-04-15T02:21:46.072Z,81.90
2018-04-15T02:22:45.525Z,81.71
2018-04-15T02:24:41.628Z,81.62
2018-04-15T02:25:41.529Z,81.62
2018-04-15T02:27:38.041Z,81.04
2018-04-15T02:28:37.537Z,81.90
2018-04-15T02:30:33.640Z,81.33
2018-04-15T02:31:33.519Z,81.43
2018-04-15T02:33:30.078Z,82.00
2018-04-15T02:34:29.548Z,81.62
2018-04-15T02:36:25.669Z,81.24
2018-04-15T02:37:25.535Z,81.24
2018-04-15T02:39:22.049Z,81.14
2018-04-15T02:40:21.523Z,81.62
2018-04-15T02:42:28.164Z,80.95
2018-04-15T02:43:28.051Z,81.14
2018-04-15T02:45:24.651Z,81.04
2018-04-15T02:46:24.214Z,81.43
2018-04-15T02:48:17.551Z,81.38
2018-04-15T02:49:17.425Z,81.62
2018-04-15T02:51:15.070Z,81.90
2018-04-15T02:52:13.422Z,81.33
2018-04-15T02:54:09.928Z,80.95
2018-04-15T02:55:09.429Z,81.38
2018-04-15T02:57:05.585Z,81.52
2018-04-15T02:58:05.437Z,81.48
2018-04-15T03:00:00.517Z,80.91
2018-04-15T03:00:59.884Z,81.20
2018-04-15T03:02:56.775Z,81.20
2018-04-15T03:03:56.678Z,81.48
2018-04-15T03:05:53.181Z,81.38
2018-04-15T03:06:52.635Z,81.67
2018-04-15T03:08:49.105Z,81.58
2018-04-15T03:09:48.633Z,81.29
2018-04-15T03:11:45.119Z,81.20
2018-04-15T03:12:44.463Z,81.10
2018-04-15T03:14:40.667Z,80.33
2018-04-15T03:15:40.460Z,80.72
2018-04-15T03:17:37.119Z,81.10
2018-04-15T03:18:36.464Z,80.72
2018-04-15T03:20:32.692Z,80.72
2018-04-15T03:21:32.452Z,80.43
2018-04-15T03:23:28.655Z,81.01
2018-04-15T03:24:28.447Z,81.20
2018-04-15T03:26:24.544Z,81.86
2018-04-15T03:27:24.351Z,81.67
2018-04-15T03:29:20.394Z,81.29
2018-04-15T03:30:20.277Z,81.10
2018-04-15T03:32:17.052Z,80.53
2018-04-15T03:33:16.883Z,80.62
2018-04-15T03:35:13.407Z,80.81
2018-04-15T03:36:12.816Z,81.48
2018-04-15T03:38:08.936Z,81.48
2018-04-15T03:39:08.716Z,81.67
2018-04-15T03:41:04.788Z,81.44
2018-04-15T03:42:04.658Z,81.48
2018-04-15T03:44:01.184Z,81.25
2018-04-15T03:45:00.636Z,82.11
2018-04-15T03:46:57.087Z,82.40
2018-04-15T03:47:56.494Z,82.59
2018-04-15T03:49:52.689Z,82.30
2018-04-15T03:50:52.490Z,82.59
2018-04-15T03:52:48.730Z,82.68
2018-04-15T03:53:48.499Z,83.44
2018-04-15T03:55:44.713Z,83.16
2018-04-15T03:56:44.499Z,82.59
2018-04-15T03:58:41.015Z,82.53
2018-04-15T03:59:40.627Z,82.53
2018-04-15T04:01:36.697Z,82.63
2018-04-15T04:02:36.478Z,82.82
2018-04-15T04:04:32.700Z,82.97
2018-04-15T04:05:32.496Z,83.83
2018-04-15T04:07:30.030Z,83.54
2018-04-15T04:08:29.281Z,83.06
2018-04-15T04:10:25.320Z,83.20
2018-04-15T04:11:25.231Z,83.44
2018-04-15T04:13:21.705Z,83.16
2018-04-15T04:14:21.104Z,83.16
2018-04-15T04:16:17.157Z,83.35
2018-04-15T04:17:17.033Z,83.48
2018-04-15T04:19:13.533Z,83.48
2018-04-15T04:20:12.932Z,83.29
2018-04-15T04:22:08.964Z,83.11
2018-04-15T04:23:08.829Z,82.63
2018-04-15T04:25:04.861Z,82.97
2018-04-15T04:26:04.789Z,83.20
2018-04-15T04:28:00.811Z,83.16
2018-04-15T04:29:00.701Z,83.35
2018-04-15T04:30:57.165Z,83.64
2018-04-15T04:31:56.676Z,83.44
2018-04-15T04:33:52.728Z,83.64
2018-04-15T04:34:52.520Z,83.73
2018-04-15T04:36:48.782Z,83.06
2018-04-15T04:37:48.525Z,82.78
2018-04-15T04:39:44.707Z,82.87
2018-04-15T04:40:44.517Z,82.20
2018-04-15T04:42:41.025Z,81.92
2018-04-15T04:43:40.410Z,82.20
2018-04-15T04:45:36.501Z,82.40
2018-04-15T04:46:36.346Z,82.49
2018-04-15T04:48:33.574Z,82.11
2018-04-15T04:49:33.236Z,82.20
2018-04-15T04:51:27.763Z,82.20
2018-04-15T04:52:27.565Z,82.54
2018-04-15T04:54:23.705Z,83.59
2018-04-15T04:55:23.587Z,83.88
2018-04-15T04:57:19.691Z,84.55
2018-04-15T04:58:19.597Z,84.07
2018-04-15T05:00:15.735Z,84.36
2018-04-15T05:01:15.615Z,83.78
2018-04-15T05:03:11.768Z,83.69
2018-04-15T05:04:11.601Z,84.36
2018-04-15T05:06:09.109Z,84.30
2018-04-15T05:07:08.431Z,83.40
2018-04-15T05:09:04.632Z,83.06
2018-04-15T05:10:04.428Z,83.16
2018-04-15T05:12:00.899Z,82.78
2018-04-15T05:13:00.350Z,82.59
2018-04-15T05:14:56.467Z,82.30
2018-04-15T05:15:56.296Z,82.49
2018-04-15T05:17:52.850Z,82.40
2018-04-15T05:18:52.190Z,82.35
2018-04-15T05:20:48.826Z,82.45
2018-04-15T05:21:48.115Z,82.26
2018-04-15T05:23:42.116Z,82.54
2018-04-15T05:24:41.569Z,82.54
2018-04-15T05:26:38.757Z,82.45
2018-04-15T05:27:38.454Z,83.40
2018-04-15T05:29:35.923Z,83.40
2018-04-15T05:30:35.199Z,83.02
2018-04-15T05:32:31.677Z,83.69
2018-04-15T05:33:31.116Z,83.40
2018-04-15T05:35:27.188Z,83.06
2018-04-15T05:36:27.055Z,82.97
2018-04-15T05:38:23.082Z,83.25
2018-04-15T05:39:22.963Z,82.78
2018-04-15T05:41:18.995Z,82.68
2018-04-15T05:42:18.879Z,82.40
2018-04-15T05:44:14.933Z,82.59
2018-04-15T05:45:14.816Z,82.49
2018-04-15T05:47:12.216Z,82.40
2018-04-15T05:48:10.784Z,82.30
2018-04-15T05:50:07.251Z,82.30
2018-04-15T05:51:06.684Z,82.01
2018-04-15T05:53:02.824Z,82.59
2018-04-15T05:54:02.603Z,82.40
2018-04-15T05:55:57.135Z,82.49
2018-04-15T05:56:56.803Z,83.40
2018-04-15T05:58:53.287Z,83.44
2018-04-15T05:59:52.751Z,83.35
2018-04-15T06:01:48.925Z,83.25
2018-04-15T06:02:48.613Z,83.16
2018-04-15T06:04:44.839Z,82.68
2018-04-15T06:05:44.689Z,82.97
2018-04-15T06:07:40.850Z,83.06
2018-04-15T06:08:40.621Z,83.16
2018-04-15T06:10:37.123Z,83.16
2018-04-15T06:11:36.696Z,82.97
2018-04-15T06:13:32.847Z,82.40
2018-04-15T06:14:32.620Z,82.97
2018-04-15T06:16:28.454Z,82.59
2018-04-15T06:17:28.326Z,82.59
2018-04-15T06:19:25.000Z,82.87
2018-04-15T06:20:24.312Z,83.25
2018-04-15T06:22:20.915Z,83.25
2018-04-15T06:23:20.213Z,83.44
2018-04-15T06:25:16.241Z,83.44
2018-04-15T06:26:16.128Z,82.40
2018-04-15T06:28:09.781Z,83.06
2018-04-15T06:29:09.853Z,82.97
2018-04-15T06:31:06.172Z,83.16
2018-04-15T06:32:05.702Z,83.73
2018-04-15T06:34:01.867Z,83.16
2018-04-15T06:35:01.710Z,83.44
2018-04-15T06:36:57.878Z,83.54
2018-04-15T06:37:57.763Z,83.92
2018-04-15T06:39:53.966Z,84.11
2018-04-15T06:40:53.767Z,83.77
2018-04-15T06:42:50.270Z,83.11
2018-04-15T06:43:49.753Z,83.58
2018-04-15T06:45:45.897Z,83.48
2018-04-15T06:46:45.782Z,83.54
2018-04-15T06:48:41.926Z,83.92
2018-04-15T06:49:41.797Z,83.87
2018-04-15T06:51:37.890Z,83.92
2018-04-15T06:52:37.756Z,84.30
2018-04-15T06:54:34.258Z,84.63
2018-04-15T06:55:33.771Z,83.87
2018-04-15T06:57:29.899Z,84.63
2018-04-15T06:58:29.779Z,84.06
2018-04-15T07:00:25.909Z,83.77
2018-04-15T07:02:42.131Z,83.11
2018-04-15T07:03:42.010Z,83.48
2018-04-15T07:05:38.499Z,83.58
2018-04-15T07:06:37.914Z,83.62
2018-04-15T07:08:33.949Z,83.34
2018-04-15T07:09:33.825Z,82.57
2018-04-15T07:11:29.904Z,82.57
2018-04-15T07:12:29.787Z,83.53
2018-04-15T07:14:25.946Z,82.48
2018-04-15T07:15:25.817Z,83.72
2018-04-15T07:17:22.336Z,83.09
2018-04-15T07:18:21.803Z,82.52
2018-04-15T07:20:17.900Z,81.76
2018-04-15T07:21:17.797Z,82.04
2018-04-15T07:23:14.143Z,82.14
2018-04-15T07:24:14.031Z,82.61
2018-04-15T07:26:10.084Z,82.04
2018-04-15T07:27:09.962Z,82.32
2018-04-15T07:29:06.426Z,82.32
2018-04-15T07:30:05.851Z,82.14
2018-04-15T07:32:01.952Z,81.51
2018-04-15T07:33:01.819Z,81.70
2018-04-15T07:34:58.217Z,81.79
2018-04-15T07:35:57.951Z,81.89
2018-04-15T07:37:54.012Z,81.89
2018-04-15T07:38:53.884Z,81.03
2018-04-15T07:40:47.949Z,80.46
2018-04-15T07:41:48.199Z,80.07
2018-04-15T07:43:43.382Z,79.41
2018-04-15T07:44:43.249Z,80.07
2018-04-15T07:46:39.349Z,79.98
2018-04-15T07:47:39.216Z,80.65
2018-04-15T07:49:36.198Z,79.88
2018-04-15T07:50:35.968Z,80.21
2018-04-15T07:52:32.039Z,79.16
2018-04-15T07:53:31.893Z,79.54
2018-04-15T07:55:25.958Z,79.64
2018-04-15T07:56:25.769Z,80.02
2018-04-15T07:58:22.273Z,80.21
2018-04-15T07:59:21.797Z,80.11
2018-04-15T08:01:18.263Z,80.21
2018-04-15T08:02:17.867Z,80.21
2018-04-15T08:04:14.350Z,79.39
2018-04-15T08:05:13.901Z,79.00
2018-04-15T08:07:10.350Z,79.20
2018-04-15T08:08:09.899Z,78.81
2018-04-15T08:10:07.381Z,78.24
2018-04-15T08:11:05.841Z,78.05
2018-04-15T08:13:02.085Z,77.67
2018-04-15T08:14:01.920Z,78.24
2018-04-15T08:15:58.394Z,77.70
2018-04-15T08:16:57.862Z,77.70
2018-04-15T08:18:54.072Z,76.84
2018-04-15T08:19:53.947Z,77.08
2018-04-15T08:21:47.575Z,76.79
2018-04-15T08:22:47.429Z,77.08
2018-04-15T08:24:43.485Z,76.06
2018-04-15T08:25:43.373Z,75.71
2018-04-15T08:27:39.389Z,73.77
2018-04-15T08:28:39.274Z,72.95
2018-04-15T08:29:39.254Z,70.87
2018-04-15T08:30:39.237Z,65.91
2018-04-15T08:31:39.234Z,63.06
2018-04-15T08:32:39.198Z,62.23
2018-04-15T08:33:39.178Z,61.00
2018-04-15T08:34:39.156Z,58.89
2018-04-15T08:35:39.134Z,55.65
2018-04-15T08:36:39.118Z,55.55
2018-04-15T08:37:39.101Z,55.19
2018-04-15T08:38:39.078Z,52.81
2018-04-15T08:39:39.052Z,50.84
2018-04-15T08:40:39.043Z,48.81
2018-04-15T08:41:39.015Z,48.25
2018-04-15T08:42:39.040Z,47.22
2018-04-15T08:43:39.036Z,46.54
2018-04-15T08:44:39.028Z,46.27
2018-04-15T08:45:38.940Z,46.37
2018-04-15T08:46:38.920Z,45.69
2018-04-15T08:47:38.904Z,45.40
2018-04-15T08:48:38.904Z,45.59
2018-04-15T08:49:38.925Z,44.73
2018-04-15T08:50:38.911Z,44.92
2018-04-15T08:51:38.933Z,45.14
2018-04-15T08:52:38.922Z,43.80
2018-04-15T08:53:38.853Z,43.32
2018-04-15T08:54:38.766Z,42.93
2018-04-15T08:55:38.742Z,41.89
2018-04-15T08:56:38.727Z,41.31
2018-04-15T08:57:38.715Z,40.94
2018-04-15T08:58:38.692Z,40.28
2018-04-15T08:59:38.668Z,40.19
2018-04-15T09:00:38.654Z,40.58
2018-04-15T09:01:38.637Z,40.40
2018-04-15T09:02:38.615Z,39.74
2018-04-15T09:03:38.596Z,37.61
2018-04-15T09:04:38.580Z,36.44
2018-04-15T09:05:38.564Z,36.44
2018-04-15T09:06:38.541Z,36.44
2018-04-15T09:07:38.522Z,36.64
2018-04-15T09:08:38.505Z,35.59
2018-04-15T09:09:38.491Z,34.93
2018-04-15T09:10:38.474Z,34.06
2018-04-15T09:11:38.451Z,33.28
2018-04-15T09:12:38.435Z,33.39
2018-04-15T09:13:38.416Z,33.29
2018-04-15T09:14:38.412Z,33.69
2018-04-15T09:15:38.380Z,33.88
2018-04-15T09:16:38.361Z,33.28
2018-04-15T09:17:38.363Z,33.39
2018-04-15T09:18:39.386Z,33.29
2018-04-15T09:19:38.314Z,33.02
2018-04-15T09:20:38.291Z,32.73
2018-04-15T09:21:38.282Z,32.35
2018-04-15T09:22:38.261Z,32.76
2018-04-15T09:23:38.242Z,32.37
2018-04-15T09:24:38.231Z,32.47
2018-04-15T09:25:38.212Z,31.81
2018-04-15T09:26:38.193Z,31.30
2018-04-15T09:27:38.174Z,30.82
2018-04-15T09:28:38.182Z,31.68
2018-04-15T09:29:38.187Z,32.44
2018-04-15T09:30:38.125Z,32.23
2018-04-15T09:31:38.146Z,32.23
2018-04-15T09:32:38.151Z,32.31
2018-04-15T09:33:38.083Z,32.29
2018-04-15T09:34:38.063Z,33.06
2018-04-15T09:35:38.053Z,33.92
2018-04-15T09:36:38.027Z,34.49
2018-04-15T09:37:38.020Z,34.88
2018-04-15T09:38:37.999Z,34.67
2018-04-15T09:39:38.476Z,35.05
2018-04-15T09:40:37.968Z,35.15
2018-04-15T09:41:37.955Z,35.36
2018-04-15T09:42:37.936Z,35.07
2018-04-15T09:43:37.911Z,35.83
2018-04-15T09:44:37.896Z,36.02
2018-04-15T09:45:37.879Z,36.80
2018-04-15T09:46:37.866Z,36.70
2018-04-15T09:47:37.849Z,36.58
2018-04-15T09:48:37.832Z,37.26
2018-04-15T09:49:37.812Z,36.68
2018-04-15T09:50:37.806Z,36.76
2018-04-15T09:51:37.787Z,38.02
2018-04-15T09:52:37.813Z,38.31
2018-04-15T09:53:37.758Z,38.48
2018-04-15T09:54:37.734Z,38.12
2018-04-15T09:55:37.721Z,38.68
2018-04-15T09:56:37.708Z,38.58
2018-04-15T09:57:37.691Z,38.31
2018-04-15T09:58:37.670Z,38.12
2018-04-15T09:59:37.669Z,39.18
2018-04-15T10:00:37.637Z,39.18
2018-04-15T10:01:37.631Z,39.47
2018-04-15T10:02:37.605Z,39.57
2018-04-15T10:03:37.589Z,39.95
2018-04-15T10:04:37.574Z,39.76
2018-04-15T10:05:37.556Z,39.37
2018-04-15T10:06:37.541Z,39.45
2018-04-15T10:07:37.524Z,40.01
2018-04-15T10:08:37.510Z,40.40
2018-04-15T10:09:37.495Z,41.15
2018-04-15T10:10:37.482Z,41.15
2018-04-15T10:11:37.463Z,40.96
2018-04-15T10:12:37.449Z,41.35
2018-04-15T10:13:37.443Z,41.33
2018-04-15T10:14:37.416Z,42.19
2018-04-15T10:15:37.400Z,42.10
2018-04-15T10:16:37.392Z,41.98
2018-04-15T10:17:37.364Z,42.66
2018-04-15T10:18:37.353Z,43.81
2018-04-15T10:19:37.541Z,44.39
2018-04-15T10:20:37.325Z,43.43
2018-04-15T10:21:37.302Z,42.94
2018-04-15T10:22:37.382Z,43.52
2018-04-15T10:23:37.321Z,43.72
2018-04-15T10:24:37.320Z,43.04
2018-04-15T10:25:37.309Z,42.85
2018-04-15T10:26:37.228Z,42.63
2018-04-15T10:27:37.209Z,43.60
2018-04-15T10:28:37.217Z,42.75
2018-04-15T10:29:37.197Z,43.43
2018-04-15T10:30:37.160Z,44.27
2018-04-15T10:31:37.149Z,43.50
2018-04-15T10:32:37.148Z,44.18
2018-04-15T10:33:37.111Z,43.70
2018-04-15T10:34:37.100Z,45.12
2018-04-15T10:35:37.085Z,44.54
2018-04-15T10:36:37.062Z,44.25
2018-04-15T10:37:37.051Z,43.38
2018-04-15T10:38:37.031Z,43.87
2018-04-15T10:39:37.028Z,44.45
2018-04-15T10:40:37.019Z,44.35
2018-04-15T10:41:37.027Z,43.27
2018-04-15T10:42:37.015Z,42.80
2018-04-15T10:43:37.021Z,42.71
2018-04-15T10:44:36.992Z,43.38
2018-04-15T10:45:37.027Z,42.69
2018-04-15T10:46:36.946Z,42.71
2018-04-15T10:47:36.956Z,42.79
2018-04-15T10:48:36.875Z,41.84
2018-04-15T10:49:36.855Z,41.82
2018-04-15T10:50:36.838Z,41.55
2018-04-15T10:51:36.820Z,41.94
2018-04-15T10:52:36.806Z,42.61
2018-04-15T10:53:36.789Z,42.80
2018-04-15T10:54:36.813Z,41.65
2018-04-15T10:55:36.765Z,41.17
2018-04-15T10:56:36.740Z,40.97
2018-04-15T10:59:11.803Z,42.11
2018-04-15T11:00:11.713Z,42.97
2018-04-15T11:02:07.794Z,42.69
2018-04-15T11:03:07.665Z,42.30
2018-04-15T11:05:03.727Z,43.46
2018-04-15T11:06:03.569Z,42.97
2018-04-15T11:07:59.680Z,43.73
2018-04-15T11:08:59.465Z,43.54
2018-04-15T11:10:55.615Z,43.92
2018-04-15T11:11:55.447Z,43.34
2018-04-15T11:13:51.941Z,44.40
2018-04-15T11:16:07.878Z,44.40
2018-04-15T11:17:07.303Z,43.44
2018-04-15T11:19:03.438Z,44.28
2018-04-15T11:20:03.328Z,42.74
2018-04-15T11:21:59.556Z,43.51
2018-04-15T11:22:59.156Z,43.44
2018-04-15T11:24:55.673Z,43.99
2018-04-15T11:25:55.135Z,44.69
2018-04-15T11:27:52.155Z,43.92
2018-04-15T11:28:52.039Z,45.94
2018-04-15T11:30:48.620Z,44.49
2018-04-15T11:31:48.059Z,44.59
2018-04-15T11:33:44.267Z,45.56
2018-04-15T11:34:44.113Z,45.75
2018-04-15T11:36:40.326Z,46.25
2018-04-15T11:37:40.127Z,45.77
2018-04-15T11:39:36.655Z,43.94
2018-04-15T11:40:36.064Z,45.87
2018-04-15T11:42:32.185Z,44.71
2018-04-15T11:43:32.091Z,44.04
2018-04-15T11:45:28.589Z,44.62
2018-04-15T11:46:28.140Z,44.52
2018-04-15T11:48:24.186Z,44.62
2018-04-15T11:49:24.095Z,44.90
2018-04-15T11:51:20.620Z,46.28
2018-04-15T11:52:20.195Z,46.08
2018-04-15T11:54:16.207Z,46.47
2018-04-15T11:55:16.115Z,46.37
2018-04-15T11:57:12.171Z,45.79
2018-04-15T11:58:12.082Z,46.76
2018-04-15T12:00:08.239Z,46.56
2018-04-15T12:01:08.110Z,46.37
2018-04-15T12:03:04.631Z,45.99
2018-04-15T12:04:04.085Z,45.70
2018-04-15T12:06:00.272Z,44.93
2018-04-15T12:07:00.075Z,44.73
2018-04-15T12:08:56.366Z,45.21
2018-04-15T12:09:56.220Z,44.93
2018-04-15T12:11:51.271Z,45.31
2018-04-15T12:12:50.642Z,46.59
2018-04-15T12:14:47.368Z,47.36
2018-04-15T12:15:46.589Z,47.63
2018-04-15T12:17:42.639Z,48.23
2018-04-15T12:18:42.538Z,48.11
2018-04-15T12:20:38.671Z,48.42
2018-04-15T12:21:38.535Z,47.94
2018-04-15T12:23:32.052Z,49.00
2018-04-15T12:24:31.960Z,47.55
2018-04-15T12:26:28.459Z,46.30
2018-04-15T12:27:28.181Z,46.40
2018-04-15T12:29:24.121Z,47.36
2018-04-15T12:30:24.031Z,47.45
2018-04-15T12:32:21.881Z,47.96
2018-04-15T12:33:20.137Z,47.87
2018-04-15T12:35:16.201Z,46.49
2018-04-15T12:36:16.018Z,45.82
2018-04-15T12:38:12.296Z,45.34
2018-04-15T12:39:12.099Z,44.08
2018-04-15T12:41:06.505Z,44.08
2018-04-15T12:42:06.401Z,43.50
2018-04-15T12:44:02.453Z,43.70
2018-04-15T12:45:02.315Z,44.08
2018-04-15T12:46:58.493Z,43.79
2018-04-15T12:47:58.205Z,43.41
2018-04-15T12:49:52.213Z,44.27
2018-04-15T12:50:51.695Z,45.72
2018-04-15T12:52:45.783Z,46.01
2018-04-15T12:53:45.180Z,46.59
2018-04-15T12:55:49.602Z,47.17
2018-04-15T12:56:49.179Z,47.55
2018-04-15T12:58:45.305Z,48.52
2018-04-15T12:59:45.163Z,48.42
2018-04-15T13:01:41.249Z,48.61
2018-04-15T13:02:41.122Z,48.42
2018-04-15T13:04:34.570Z,48.71
2018-04-15T13:05:34.487Z,48.23
2018-04-15T13:07:28.151Z,48.03
2018-04-15T13:08:28.046Z,48.23
2018-04-15T13:10:24.539Z,48.52
2018-04-15T13:11:24.184Z,48.81
2018-04-15T13:13:20.238Z,47.94
2018-04-15T13:14:20.157Z,47.96
2018-04-15T13:15:20.121Z,47.87
2018-04-15T13:16:20.105Z,47.38
2018-04-15T13:17:20.089Z,47.58
2018-04-15T13:18:20.069Z,48.06
2018-04-15T13:19:20.052Z,49.02
2018-04-15T13:20:20.039Z,47.87
2018-04-15T13:21:20.028Z,48.16
2018-04-15T13:22:20.005Z,48.83
2018-04-15T13:23:19.998Z,48.83
2018-04-15T13:24:19.977Z,49.41
2018-04-15T13:25:19.962Z,49.22
2018-04-15T13:26:19.941Z,49.12
2018-04-15T13:27:19.924Z,48.44
2018-04-15T13:28:19.911Z,47.38
2018-04-15T13:29:19.918Z,48.16
2018-04-15T13:30:19.877Z,48.54
2018-04-15T13:31:19.860Z,49.51
2018-04-15T13:32:19.850Z,49.70
2018-04-15T13:33:19.832Z,48.64
2018-04-15T13:34:19.831Z,49.32
2018-04-15T13:35:19.828Z,47.96
2018-04-15T13:36:19.829Z,47.48
2018-04-15T13:37:19.766Z,47.48
2018-04-15T13:38:19.744Z,46.71
2018-04-15T13:39:19.734Z,46.81
2018-04-15T13:40:19.717Z,46.61
2018-04-15T13:41:19.704Z,46.42
2018-04-15T13:42:19.681Z,46.33
2018-04-15T13:43:19.664Z,46.61
2018-04-15T13:44:19.650Z,46.23
2018-04-15T13:45:19.632Z,46.23
2018-04-15T13:46:19.618Z,46.90
2018-04-15T13:47:19.600Z,47.38
2018-04-15T13:48:19.590Z,47.77
2018-04-15T13:49:19.574Z,48.06
2018-04-15T13:50:19.549Z,47.29
2018-04-15T13:51:19.536Z,47.38
2018-04-15T13:52:19.528Z,47.29
2018-04-15T13:53:19.562Z,46.42
2018-04-15T13:54:19.507Z,46.15
2018-04-15T13:55:19.470Z,46.25
2018-04-15T13:56:19.461Z,46.92
2018-04-15T13:57:19.440Z,46.34
2018-04-15T13:58:19.421Z,46.54
2018-04-15T13:59:19.413Z,47.50
2018-04-15T14:00:19.393Z,47.50
2018-04-15T14:01:19.382Z,48.47
2018-04-15T14:02:19.361Z,48.18
2018-04-15T14:03:19.342Z,48.47
2018-04-15T14:04:19.325Z,47.50
2018-04-15T14:05:19.308Z,47.89
2018-04-15T14:06:19.296Z,47.12
2018-04-15T14:07:19.277Z,48.28
2018-04-15T14:08:19.259Z,48.08
2018-04-15T14:09:19.248Z,48.95
2018-04-15T14:10:19.255Z,48.28
2018-04-15T14:11:19.252Z,48.47
2018-04-15T14:12:19.262Z,47.80
2018-04-15T14:13:55.153Z,47.31
2018-04-15T14:14:19.251Z,46.44
2018-04-15T14:15:19.250Z,46.34
2018-04-15T14:16:19.235Z,46.64
2018-04-15T14:17:19.216Z,45.79
2018-04-15T14:18:19.200Z,46.15
2018-04-15T14:19:19.148Z,46.06
2018-04-15T14:20:19.068Z,46.64
2018-04-15T14:21:19.054Z,46.56
2018-04-15T14:22:19.035Z,46.25
2018-04-15T14:23:19.022Z,45.96
2018-04-15T14:24:19.001Z,45.96
2018-04-15T14:25:19.003Z,45.96
2018-04-15T14:26:18.969Z,46.54
2018-04-15T14:27:18.956Z,46.34
2018-04-15T14:28:18.988Z,45.67
2018-04-15T14:29:18.920Z,46.64
2018-04-15T14:30:18.909Z,45.96
2018-04-15T14:31:18.892Z,45.86
2018-04-15T14:32:18.885Z,45.57
2018-04-15T14:33:18.856Z,45.38
2018-04-15T14:34:18.839Z,46.15
2018-04-15T14:35:18.826Z,46.15
2018-04-15T14:36:18.809Z,46.34
2018-04-15T14:37:18.792Z,46.64
2018-04-15T14:38:18.775Z,46.54
2018-04-15T14:39:18.765Z,45.96
2018-04-15T14:40:18.741Z,45.96
2018-04-15T14:41:18.729Z,46.34
2018-04-15T14:42:18.735Z,45.48
2018-04-15T14:43:18.694Z,44.78
2018-04-15T14:44:25.602Z,45.38
2018-04-15T14:45:18.662Z,45.57
2018-04-15T14:46:20.044Z,46.13
2018-04-15T14:47:18.634Z,46.71
2018-04-15T14:48:18.617Z,46.03
2018-04-15T14:49:18.616Z,46.33
2018-04-15T14:50:18.585Z,46.33
2018-04-15T14:51:18.573Z,46.42
2018-04-15T14:52:18.551Z,45.75
2018-04-15T14:53:18.536Z,46.23
2018-04-15T14:54:18.517Z,45.84
2018-04-15T14:55:18.507Z,46.61
2018-04-15T14:56:18.486Z,46.03
2018-04-15T14:57:18.472Z,45.94
2018-04-15T14:58:18.453Z,46.51
2018-04-15T14:59:18.439Z,46.42
2018-04-15T15:00:18.424Z,47.09
2018-04-15T15:01:18.408Z,47.00
2018-04-15T15:02:18.392Z,45.55
2018-04-15T15:03:18.377Z,45.26
2018-04-15T15:04:18.364Z,45.94
2018-04-15T15:05:18.346Z,45.84
2018-04-15T15:06:18.327Z,45.55
2018-04-15T15:07:18.871Z,45.94
2018-04-15T15:08:18.298Z,46.23
2018-04-15T15:09:18.275Z,45.26
2018-04-15T15:10:18.261Z,45.45
2018-04-15T15:11:18.255Z,46.13
2018-04-15T15:12:18.229Z,46.03
2018-04-15T15:13:18.214Z,46.20
2018-04-15T15:14:18.193Z,46.78
2018-04-15T15:15:18.179Z,46.03
2018-04-15T15:16:18.161Z,46.01
2018-04-15T15:17:18.144Z,46.01
2018-04-15T15:18:18.132Z,46.49
2018-04-15T15:19:18.124Z,46.88
2018-04-15T15:20:18.096Z,46.30
2018-04-15T15:21:18.145Z,46.88
2018-04-15T15:22:18.068Z,46.40
2018-04-15T15:23:18.049Z,47.27
2018-04-15T15:24:18.031Z,47.55
2018-04-15T15:25:18.021Z,47.65
2018-04-15T15:26:17.999Z,46.30
2018-04-15T15:27:17.983Z,47.27
2018-04-15T15:28:18.075Z,47.45
2018-04-15T15:29:17.951Z,46.97
2018-04-15T15:30:17.972Z,47.27
2018-04-15T15:31:17.918Z,46.78
2018-04-15T15:32:17.903Z,47.55
2018-04-15T15:33:17.884Z,47.36
2018-04-15T15:34:17.878Z,46.01
2018-04-15T15:35:17.863Z,46.40
2018-04-15T15:36:17.841Z,45.34
2018-04-15T15:37:17.820Z,45.92
2018-04-15T15:38:17.816Z,46.20
2018-04-15T15:39:17.789Z,46.30
2018-04-15T15:40:17.774Z,45.34
2018-04-15T15:41:17.767Z,45.92
2018-04-15T15:42:17.735Z,45.62
2018-04-15T15:43:17.723Z,46.88
2018-04-15T15:44:17.709Z,47.85
2018-04-15T15:45:17.695Z,47.45
2018-04-15T15:46:17.673Z,46.78
2018-04-15T15:47:17.667Z,46.49
2018-04-15T15:48:17.645Z,46.51
2018-04-15T15:49:17.623Z,45.62
2018-04-15T15:50:17.607Z,46.40
2018-04-15T15:51:17.609Z,46.71
2018-04-15T15:52:17.576Z,46.59
2018-04-15T15:53:17.560Z,46.59
2018-04-15T15:54:17.553Z,46.11
2018-04-15T15:55:17.526Z,46.59
2018-04-15T15:56:17.511Z,46.49
2018-04-15T15:57:17.492Z,47.75
2018-04-15T15:58:17.478Z,48.33
2018-04-15T15:59:17.472Z,48.90
2018-04-15T16:00:17.446Z,50.06
2018-04-15T16:01:17.432Z,50.93
2018-04-15T16:02:17.413Z,50.74
2018-04-15T16:03:17.404Z,51.51
2018-04-15T16:04:17.385Z,52.06
2018-04-15T16:05:17.372Z,52.16
2018-04-15T16:06:17.353Z,52.55
2018-04-15T16:07:17.358Z,52.73
2018-04-15T16:08:17.363Z,53.13
2018-04-15T16:09:17.361Z,53.96
2018-04-15T16:10:17.415Z,53.96
2018-04-15T16:11:17.361Z,54.35
2018-04-15T16:12:17.407Z,54.44
2018-04-15T16:13:17.348Z,54.93
2018-04-15T16:14:17.269Z,54.54
2018-04-15T16:15:39.131Z,54.38
2018-04-15T16:16:17.181Z,54.54
2018-04-15T16:17:17.165Z,54.35
2018-04-15T16:18:17.149Z,54.74
2018-04-15T16:19:17.136Z,54.54